sensor_id;sensor_type;location;lat;lon;timestamp;P1;durP1;ratioP1;P2;durP2;ratioP2
286;SDS011;127;48.770;9.212;2022-10-31T00:01:33;9.10;;;5.87;;
286;SDS011;127;48.770;9.212;2022-10-31T00:04:03;16.10;;;5.90;;
286;SDS011;127;48.770;9.212;2022-10-31T00:06:33;20.63;;;6.43;;
286;SDS011;127;48.770;9.212;2022-10-31T00:09:02;14.67;;;5.63;;
286;SDS011;127;48.770;9.212;2022-10-31T00:11:32;13.53;;;6.70;;
286;SDS011;127;48.770;9.212;2022-10-31T00:14:04;16.23;;;6.83;;
286;SDS011;127;48.770;9.212;2022-10-31T00:16:32;11.47;;;5.47;;
286;SDS011;127;48.770;9.212;2022-10-31T00:19:02;13.80;;;6.40;;
286;SDS011;127;48.770;9.212;2022-10-31T00:21:32;10.77;;;5.97;;
286;SDS011;127;48.770;9.212;2022-10-31T00:24:02;11.73;;;6.10;;
286;SDS011;127;48.770;9.212;2022-10-31T00:26:31;13.27;;;6.33;;
286;SDS011;127;48.770;9.212;2022-10-31T00:29:03;10.20;;;5.33;;
286;SDS011;127;48.770;9.212;2022-10-31T00:31:32;13.70;;;6.13;;
286;SDS011;127;48.770;9.212;2022-10-31T00:34:00;17.10;;;5.40;;
286;SDS011;127;48.770;9.212;2022-10-31T00:36:30;14.73;;;6.03;;
286;SDS011;127;48.770;9.212;2022-10-31T00:38:59;13.30;;;6.20;;
286;SDS011;127;48.770;9.212;2022-10-31T00:41:28;20.03;;;6.07;;
286;SDS011;127;48.770;9.212;2022-10-31T00:43:56;15.50;;;6.57;;
286;SDS011;127;48.770;9.212;2022-10-31T00:46:28;14.90;;;6.30;;
286;SDS011;127;48.770;9.212;2022-10-31T00:48:56;17.77;;;7.47;;
286;SDS011;127;48.770;9.212;2022-10-31T00:51:25;14.93;;;6.63;;
286;SDS011;127;48.770;9.212;2022-10-31T00:53:54;17.43;;;6.57;;
286;SDS011;127;48.770;9.212;2022-10-31T00:56:23;19.30;;;7.70;;
286;SDS011;127;48.770;9.212;2022-10-31T00:58:51;22.77;;;7.20;;
286;SDS011;127;48.770;9.212;2022-10-31T01:01:20;16.50;;;5.90;;
286;SDS011;127;48.770;9.212;2022-10-31T01:03:51;18.47;;;6.97;;
286;SDS011;127;48.770;9.212;2022-10-31T01:06:20;17.37;;;6.70;;
286;SDS011;127;48.770;9.212;2022-10-31T01:08:48;13.40;;;7.10;;
286;SDS011;127;48.770;9.212;2022-10-31T01:11:18;12.10;;;6.63;;
286;SDS011;127;48.770;9.212;2022-10-31T01:13:49;20.30;;;7.63;;
286;SDS011;127;48.770;9.212;2022-10-31T01:16:20;13.30;;;6.90;;
286;SDS011;127;48.770;9.212;2022-10-31T01:18:53;21.27;;;7.03;;
286;SDS011;127;48.770;9.212;2022-10-31T01:21:22;12.17;;;7.30;;
286;SDS011;127;48.770;9.212;2022-10-31T01:23:52;10.60;;;6.33;;
286;SDS011;127;48.770;9.212;2022-10-31T01:26:23;19.47;;;7.37;;
286;SDS011;127;48.770;9.212;2022-10-31T01:28:53;15.87;;;8.03;;
286;SDS011;127;48.770;9.212;2022-10-31T01:31:25;23.80;;;7.33;;
286;SDS011;127;48.770;9.212;2022-10-31T01:33:57;20.83;;;7.50;;
286;SDS011;127;48.770;9.212;2022-10-31T01:36:27;19.30;;;7.20;;
286;SDS011;127;48.770;9.212;2022-10-31T01:38:57;20.73;;;7.80;;
286;SDS011;127;48.770;9.212;2022-10-31T01:41:29;21.27;;;7.40;;
286;SDS011;127;48.770;9.212;2022-10-31T01:43:59;17.73;;;7.30;;
286;SDS011;127;48.770;9.212;2022-10-31T01:46:29;17.33;;;7.40;;
286;SDS011;127;48.770;9.212;2022-10-31T01:49:04;22.53;;;7.47;;
286;SDS011;127;48.770;9.212;2022-10-31T01:51:38;17.60;;;6.70;;
286;SDS011;127;48.770;9.212;2022-10-31T01:54:12;17.83;;;7.40;;
286;SDS011;127;48.770;9.212;2022-10-31T01:56:44;19.80;;;7.30;;
286;SDS011;127;48.770;9.212;2022-10-31T01:59:17;19.30;;;7.70;;
286;SDS011;127;48.770;9.212;2022-10-31T02:01:48;18.53;;;7.80;;
286;SDS011;127;48.770;9.212;2022-10-31T02:04:21;30.03;;;10.10;;
286;SDS011;127;48.770;9.212;2022-10-31T02:06:53;12.77;;;7.00;;
286;SDS011;127;48.770;9.212;2022-10-31T02:09:26;22.57;;;8.63;;
286;SDS011;127;48.770;9.212;2022-10-31T02:11:57;20.50;;;7.90;;
286;SDS011;127;48.770;9.212;2022-10-31T02:14:28;28.30;;;9.77;;
286;SDS011;127;48.770;9.212;2022-10-31T02:16:58;18.17;;;9.03;;
286;SDS011;127;48.770;9.212;2022-10-31T02:19:30;29.53;;;8.23;;
286;SDS011;127;48.770;9.212;2022-10-31T02:22:07;15.60;;;8.23;;
286;SDS011;127;48.770;9.212;2022-10-31T02:24:51;17.83;;;8.73;;
286;SDS011;127;48.770;9.212;2022-10-31T02:27:41;17.73;;;9.77;;
286;SDS011;127;48.770;9.212;2022-10-31T02:30:30;16.73;;;8.60;;
286;SDS011;127;48.770;9.212;2022-10-31T02:33:14;27.53;;;9.77;;
286;SDS011;127;48.770;9.212;2022-10-31T02:35:50;20.27;;;9.50;;
286;SDS011;127;48.770;9.212;2022-10-31T02:38:28;23.90;;;8.53;;
286;SDS011;127;48.770;9.212;2022-10-31T02:41:06;26.80;;;9.47;;
286;SDS011;127;48.770;9.212;2022-10-31T02:43:49;22.87;;;8.57;;
286;SDS011;127;48.770;9.212;2022-10-31T02:46:31;24.13;;;9.80;;
286;SDS011;127;48.770;9.212;2022-10-31T02:49:07;21.03;;;8.80;;
286;SDS011;127;48.770;9.212;2022-10-31T02:51:39;18.47;;;9.53;;
286;SDS011;127;48.770;9.212;2022-10-31T02:54:16;17.90;;;9.20;;
286;SDS011;127;48.770;9.212;2022-10-31T02:56:46;19.47;;;9.27;;
286;SDS011;127;48.770;9.212;2022-10-31T02:59:16;18.77;;;10.00;;
286;SDS011;127;48.770;9.212;2022-10-31T03:01:58;32.20;;;12.60;;
286;SDS011;127;48.770;9.212;2022-10-31T03:07:26;20.30;;;10.37;;
286;SDS011;127;48.770;9.212;2022-10-31T03:10:03;23.13;;;11.00;;
286;SDS011;127;48.770;9.212;2022-10-31T03:12:38;21.70;;;9.90;;
286;SDS011;127;48.770;9.212;2022-10-31T03:15:13;24.97;;;11.50;;
286;SDS011;127;48.770;9.212;2022-10-31T03:17:49;28.40;;;12.40;;
286;SDS011;127;48.770;9.212;2022-10-31T03:20:24;24.00;;;13.30;;
286;SDS011;127;48.770;9.212;2022-10-31T03:22:57;28.43;;;12.87;;
286;SDS011;127;48.770;9.212;2022-10-31T03:25:28;34.50;;;13.47;;
286;SDS011;127;48.770;9.212;2022-10-31T03:27:58;21.63;;;12.87;;
286;SDS011;127;48.770;9.212;2022-10-31T03:30:29;30.33;;;14.03;;
286;SDS011;127;48.770;9.212;2022-10-31T03:33:01;26.70;;;13.30;;
286;SDS011;127;48.770;9.212;2022-10-31T03:35:37;34.03;;;12.00;;
286;SDS011;127;48.770;9.212;2022-10-31T03:38:09;19.03;;;10.33;;
286;SDS011;127;48.770;9.212;2022-10-31T03:40:39;28.23;;;11.83;;
286;SDS011;127;48.770;9.212;2022-10-31T03:43:12;26.63;;;12.20;;
286;SDS011;127;48.770;9.212;2022-10-31T03:45:45;20.20;;;10.50;;
286;SDS011;127;48.770;9.212;2022-10-31T03:48:15;19.93;;;11.23;;
286;SDS011;127;48.770;9.212;2022-10-31T03:50:51;21.20;;;12.10;;
286;SDS011;127;48.770;9.212;2022-10-31T03:53:30;28.40;;;10.20;;
286;SDS011;127;48.770;9.212;2022-10-31T03:56:02;21.03;;;10.10;;
286;SDS011;127;48.770;9.212;2022-10-31T03:58:38;17.77;;;8.90;;
286;SDS011;127;48.770;9.212;2022-10-31T04:01:13;31.20;;;10.47;;
286;SDS011;127;48.770;9.212;2022-10-31T04:03:45;22.70;;;10.60;;
286;SDS011;127;48.770;9.212;2022-10-31T04:06:17;25.37;;;11.00;;
286;SDS011;127;48.770;9.212;2022-10-31T04:08:49;28.63;;;11.17;;
286;SDS011;127;48.770;9.212;2022-10-31T04:11:22;26.03;;;10.87;;
286;SDS011;127;48.770;9.212;2022-10-31T04:13:53;28.00;;;12.40;;
286;SDS011;127;48.770;9.212;2022-10-31T04:16:24;28.23;;;9.83;;
286;SDS011;127;48.770;9.212;2022-10-31T04:18:54;18.60;;;10.40;;
286;SDS011;127;48.770;9.212;2022-10-31T04:21:29;17.37;;;9.07;;
286;SDS011;127;48.770;9.212;2022-10-31T04:23:58;18.33;;;9.17;;
286;SDS011;127;48.770;9.212;2022-10-31T04:26:27;27.13;;;11.00;;
286;SDS011;127;48.770;9.212;2022-10-31T04:28:55;19.47;;;10.37;;
286;SDS011;127;48.770;9.212;2022-10-31T04:31:24;29.03;;;11.10;;
286;SDS011;127;48.770;9.212;2022-10-31T04:33:53;25.53;;;12.63;;
286;SDS011;127;48.770;9.212;2022-10-31T04:36:21;29.17;;;12.23;;
286;SDS011;127;48.770;9.212;2022-10-31T04:38:52;30.43;;;12.33;;
286;SDS011;127;48.770;9.212;2022-10-31T04:41:21;20.40;;;12.10;;
286;SDS011;127;48.770;9.212;2022-10-31T04:43:50;25.07;;;11.40;;
286;SDS011;127;48.770;9.212;2022-10-31T04:46:19;31.23;;;12.23;;
286;SDS011;127;48.770;9.212;2022-10-31T04:48:48;23.30;;;11.60;;
286;SDS011;127;48.770;9.212;2022-10-31T04:51:16;26.70;;;11.90;;
286;SDS011;127;48.770;9.212;2022-10-31T04:53:45;24.83;;;12.13;;
286;SDS011;127;48.770;9.212;2022-10-31T04:56:16;26.23;;;11.13;;
286;SDS011;127;48.770;9.212;2022-10-31T04:58:45;37.00;;;11.70;;
286;SDS011;127;48.770;9.212;2022-10-31T05:01:14;26.20;;;11.47;;
286;SDS011;127;48.770;9.212;2022-10-31T05:03:42;23.47;;;11.93;;
286;SDS011;127;48.770;9.212;2022-10-31T05:06:11;22.60;;;13.13;;
286;SDS011;127;48.770;9.212;2022-10-31T05:08:41;26.07;;;12.47;;
286;SDS011;127;48.770;9.212;2022-10-31T05:11:10;36.17;;;11.07;;
286;SDS011;127;48.770;9.212;2022-10-31T05:13:41;27.70;;;11.47;;
286;SDS011;127;48.770;9.212;2022-10-31T05:16:10;19.87;;;11.10;;
286;SDS011;127;48.770;9.212;2022-10-31T05:18:38;27.80;;;11.40;;
286;SDS011;127;48.770;9.212;2022-10-31T05:21:07;29.47;;;13.40;;
286;SDS011;127;48.770;9.212;2022-10-31T05:23:35;37.07;;;12.80;;
286;SDS011;127;48.770;9.212;2022-10-31T05:26:04;28.03;;;12.80;;
286;SDS011;127;48.770;9.212;2022-10-31T05:28:33;27.93;;;12.80;;
286;SDS011;127;48.770;9.212;2022-10-31T05:31:04;30.67;;;12.10;;
286;SDS011;127;48.770;9.212;2022-10-31T05:33:33;27.17;;;13.00;;
286;SDS011;127;48.770;9.212;2022-10-31T05:36:01;30.93;;;13.33;;
286;SDS011;127;48.770;9.212;2022-10-31T05:38:31;25.67;;;12.80;;
286;SDS011;127;48.770;9.212;2022-10-31T05:40:59;38.60;;;14.13;;
286;SDS011;127;48.770;9.212;2022-10-31T05:43:28;28.33;;;11.97;;
286;SDS011;127;48.770;9.212;2022-10-31T05:45:57;35.50;;;13.40;;
286;SDS011;127;48.770;9.212;2022-10-31T05:48:28;26.73;;;13.47;;
286;SDS011;127;48.770;9.212;2022-10-31T05:50:57;30.97;;;12.80;;
286;SDS011;127;48.770;9.212;2022-10-31T05:53:25;30.97;;;13.03;;
286;SDS011;127;48.770;9.212;2022-10-31T05:55:54;25.73;;;13.53;;
286;SDS011;127;48.770;9.212;2022-10-31T05:58:23;28.43;;;12.20;;
286;SDS011;127;48.770;9.212;2022-10-31T06:00:51;33.47;;;14.10;;
286;SDS011;127;48.770;9.212;2022-10-31T06:03:21;28.20;;;13.37;;
286;SDS011;127;48.770;9.212;2022-10-31T06:05:52;26.87;;;12.77;;
286;SDS011;127;48.770;9.212;2022-10-31T06:08:20;25.40;;;13.13;;
286;SDS011;127;48.770;9.212;2022-10-31T06:10:49;30.80;;;12.90;;
286;SDS011;127;48.770;9.212;2022-10-31T06:13:18;38.97;;;13.73;;
286;SDS011;127;48.770;9.212;2022-10-31T06:15:47;30.90;;;14.07;;
286;SDS011;127;48.770;9.212;2022-10-31T06:18:16;37.87;;;13.53;;
286;SDS011;127;48.770;9.212;2022-10-31T06:20:44;34.38;;;16.08;;
286;SDS011;127;48.770;9.212;2022-10-31T06:23:15;28.80;;;14.57;;
286;SDS011;127;48.770;9.212;2022-10-31T06:25:47;31.73;;;15.20;;
286;SDS011;127;48.770;9.212;2022-10-31T06:28:16;31.93;;;13.77;;
286;SDS011;127;48.770;9.212;2022-10-31T06:30:45;49.90;;;14.60;;
286;SDS011;127;48.770;9.212;2022-10-31T06:33:14;30.27;;;13.57;;
286;SDS011;127;48.770;9.212;2022-10-31T06:35:44;27.90;;;12.77;;
286;SDS011;127;48.770;9.212;2022-10-31T06:38:16;32.30;;;14.23;;
286;SDS011;127;48.770;9.212;2022-10-31T06:40:45;35.03;;;15.80;;
286;SDS011;127;48.770;9.212;2022-10-31T07:55:08;13.40;;;8.47;;
286;SDS011;127;48.770;9.212;2022-10-31T07:57:59;13.30;;;8.40;;
286;SDS011;127;48.770;9.212;2022-10-31T08:07:39;22.70;;;8.17;;
286;SDS011;127;48.770;9.212;2022-10-31T08:10:08;12.80;;;7.40;;
286;SDS011;127;48.770;9.212;2022-10-31T08:12:38;12.60;;;7.50;;
286;SDS011;127;48.770;9.212;2022-10-31T08:34:15;12.70;;;6.13;;
286;SDS011;127;48.770;9.212;2022-10-31T08:36:44;10.23;;;6.20;;
286;SDS011;127;48.770;9.212;2022-10-31T08:39:13;9.77;;;6.37;;
286;SDS011;127;48.770;9.212;2022-10-31T08:41:41;11.90;;;6.50;;
286;SDS011;127;48.770;9.212;2022-10-31T08:44:10;13.83;;;6.50;;
286;SDS011;127;48.770;9.212;2022-10-31T08:46:40;11.57;;;6.97;;
286;SDS011;127;48.770;9.212;2022-10-31T08:49:09;11.40;;;6.10;;
286;SDS011;127;48.770;9.212;2022-10-31T08:51:40;9.90;;;5.63;;
286;SDS011;127;48.770;9.212;2022-10-31T08:54:09;11.53;;;5.60;;
286;SDS011;127;48.770;9.212;2022-10-31T08:56:37;12.50;;;6.40;;
286;SDS011;127;48.770;9.212;2022-10-31T08:59:06;17.33;;;6.27;;
286;SDS011;127;48.770;9.212;2022-10-31T09:01:35;7.43;;;5.37;;
286;SDS011;127;48.770;9.212;2022-10-31T09:04:03;11.70;;;5.13;;
286;SDS011;127;48.770;9.212;2022-10-31T09:06:32;12.57;;;5.43;;
286;SDS011;127;48.770;9.212;2022-10-31T09:09:03;20.50;;;6.30;;
286;SDS011;127;48.770;9.212;2022-10-31T09:11:32;10.40;;;5.47;;
286;SDS011;127;48.770;9.212;2022-10-31T09:14:01;12.80;;;6.03;;
286;SDS011;127;48.770;9.212;2022-10-31T09:16:29;14.10;;;6.70;;
286;SDS011;127;48.770;9.212;2022-10-31T09:18:58;12.63;;;6.43;;
286;SDS011;127;48.770;9.212;2022-10-31T09:21:27;12.60;;;6.00;;
286;SDS011;127;48.770;9.212;2022-10-31T09:23:55;14.77;;;7.80;;
286;SDS011;127;48.770;9.212;2022-10-31T09:26:27;20.17;;;7.80;;
286;SDS011;127;48.770;9.212;2022-10-31T09:28:55;15.20;;;7.20;;
286;SDS011;127;48.770;9.212;2022-10-31T09:31:27;15.93;;;6.73;;
286;SDS011;127;48.770;9.212;2022-10-31T09:33:55;15.60;;;6.63;;
286;SDS011;127;48.770;9.212;2022-10-31T09:36:24;14.20;;;6.87;;
286;SDS011;127;48.770;9.212;2022-10-31T09:38:53;15.50;;;8.23;;
286;SDS011;127;48.770;9.212;2022-10-31T09:41:23;12.30;;;6.73;;
286;SDS011;127;48.770;9.212;2022-10-31T09:43:59;18.10;;;7.70;;
286;SDS011;127;48.770;9.212;2022-10-31T09:46:37;15.13;;;7.20;;
286;SDS011;127;48.770;9.212;2022-10-31T09:49:25;18.33;;;9.33;;
286;SDS011;127;48.770;9.212;2022-10-31T09:52:09;16.30;;;7.63;;
286;SDS011;127;48.770;9.212;2022-10-31T09:54:41;24.43;;;9.23;;
286;SDS011;127;48.770;9.212;2022-10-31T09:57:17;14.80;;;8.00;;
286;SDS011;127;48.770;9.212;2022-10-31T09:59:51;18.20;;;8.00;;
286;SDS011;127;48.770;9.212;2022-10-31T10:02:21;17.90;;;8.03;;
286;SDS011;127;48.770;9.212;2022-10-31T10:04:57;15.27;;;7.43;;
286;SDS011;127;48.770;9.212;2022-10-31T10:07:32;24.73;;;8.37;;
286;SDS011;127;48.770;9.212;2022-10-31T10:10:12;19.77;;;8.80;;
286;SDS011;127;48.770;9.212;2022-10-31T10:12:51;12.83;;;7.57;;
286;SDS011;127;48.770;9.212;2022-10-31T10:18:25;19.67;;;8.27;;
286;SDS011;127;48.770;9.212;2022-10-31T10:21:09;14.30;;;7.50;;
286;SDS011;127;48.770;9.212;2022-10-31T10:23:50;16.37;;;8.17;;
286;SDS011;127;48.770;9.212;2022-10-31T10:26:33;14.83;;;7.47;;
286;SDS011;127;48.770;9.212;2022-10-31T10:29:14;14.03;;;7.27;;
286;SDS011;127;48.770;9.212;2022-10-31T10:31:58;14.23;;;7.57;;
286;SDS011;127;48.770;9.212;2022-10-31T10:34:34;13.90;;;8.30;;
286;SDS011;127;48.770;9.212;2022-10-31T10:37:09;18.27;;;7.63;;
286;SDS011;127;48.770;9.212;2022-10-31T10:39:46;15.70;;;6.90;;
286;SDS011;127;48.770;9.212;2022-10-31T10:42:18;18.40;;;7.83;;
286;SDS011;127;48.770;9.212;2022-10-31T10:45:06;16.10;;;8.20;;
286;SDS011;127;48.770;9.212;2022-10-31T10:47:55;16.13;;;7.23;;
286;SDS011;127;48.770;9.212;2022-10-31T10:50:31;18.10;;;8.33;;
286;SDS011;127;48.770;9.212;2022-10-31T10:53:06;28.70;;;9.90;;
286;SDS011;127;48.770;9.212;2022-10-31T10:55:48;20.93;;;8.70;;
286;SDS011;127;48.770;9.212;2022-10-31T10:58:24;18.63;;;6.93;;
286;SDS011;127;48.770;9.212;2022-10-31T11:00:56;19.53;;;7.60;;
286;SDS011;127;48.770;9.212;2022-10-31T11:03:24;20.80;;;7.93;;
286;SDS011;127;48.770;9.212;2022-10-31T11:05:54;13.50;;;7.23;;
286;SDS011;127;48.770;9.212;2022-10-31T11:08:26;14.67;;;7.40;;
286;SDS011;127;48.770;9.212;2022-10-31T11:10:57;18.77;;;8.80;;
286;SDS011;127;48.770;9.212;2022-10-31T11:13:28;15.40;;;8.80;;
286;SDS011;127;48.770;9.212;2022-10-31T11:16:03;22.40;;;7.93;;
286;SDS011;127;48.770;9.212;2022-10-31T11:18:36;16.53;;;8.37;;
286;SDS011;127;48.770;9.212;2022-10-31T11:21:17;14.80;;;7.30;;
286;SDS011;127;48.770;9.212;2022-10-31T11:24:03;18.97;;;7.70;;
286;SDS011;127;48.770;9.212;2022-10-31T11:26:40;18.30;;;8.23;;
286;SDS011;127;48.770;9.212;2022-10-31T11:29:13;17.60;;;7.23;;
286;SDS011;127;48.770;9.212;2022-10-31T11:31:46;16.93;;;7.00;;
286;SDS011;127;48.770;9.212;2022-10-31T11:34:24;18.97;;;6.97;;
286;SDS011;127;48.770;9.212;2022-10-31T11:36:58;14.87;;;7.30;;
286;SDS011;127;48.770;9.212;2022-10-31T11:39:32;20.80;;;8.83;;
286;SDS011;127;48.770;9.212;2022-10-31T11:42:08;11.57;;;7.17;;
286;SDS011;127;48.770;9.212;2022-10-31T11:44:40;15.60;;;6.90;;
286;SDS011;127;48.770;9.212;2022-10-31T11:47:13;16.00;;;6.60;;
286;SDS011;127;48.770;9.212;2022-10-31T11:49:45;22.30;;;7.67;;
286;SDS011;127;48.770;9.212;2022-10-31T11:52:16;16.60;;;7.70;;
286;SDS011;127;48.770;9.212;2022-10-31T11:54:48;14.23;;;6.47;;
286;SDS011;127;48.770;9.212;2022-10-31T11:57:21;15.33;;;8.03;;
286;SDS011;127;48.770;9.212;2022-10-31T11:59:55;22.20;;;7.90;;
286;SDS011;127;48.770;9.212;2022-10-31T12:02:28;12.90;;;8.50;;
286;SDS011;127;48.770;9.212;2022-10-31T12:04:59;16.00;;;7.87;;
286;SDS011;127;48.770;9.212;2022-10-31T12:07:32;27.00;;;8.10;;
286;SDS011;127;48.770;9.212;2022-10-31T12:10:00;21.73;;;8.27;;
286;SDS011;127;48.770;9.212;2022-10-31T12:12:38;19.80;;;7.97;;
286;SDS011;127;48.770;9.212;2022-10-31T12:15:20;12.80;;;7.23;;
286;SDS011;127;48.770;9.212;2022-10-31T12:18:09;23.70;;;7.67;;
286;SDS011;127;48.770;9.212;2022-10-31T12:20:56;15.30;;;7.60;;
286;SDS011;127;48.770;9.212;2022-10-31T12:23:42;14.17;;;8.17;;
286;SDS011;127;48.770;9.212;2022-10-31T12:26:18;19.17;;;8.53;;
286;SDS011;127;48.770;9.212;2022-10-31T12:29:01;17.40;;;8.10;;
286;SDS011;127;48.770;9.212;2022-10-31T12:31:44;16.40;;;8.60;;
286;SDS011;127;48.770;9.212;2022-10-31T12:34:33;24.17;;;8.43;;
286;SDS011;127;48.770;9.212;2022-10-31T12:37:25;24.00;;;8.50;;
286;SDS011;127;48.770;9.212;2022-10-31T12:40:15;23.70;;;8.17;;
286;SDS011;127;48.770;9.212;2022-10-31T12:43:01;18.83;;;7.57;;
286;SDS011;127;48.770;9.212;2022-10-31T12:45:48;23.83;;;8.73;;
286;SDS011;127;48.770;9.212;2022-10-31T12:48:34;14.10;;;8.17;;
286;SDS011;127;48.770;9.212;2022-10-31T12:51:18;19.10;;;8.40;;
286;SDS011;127;48.770;9.212;2022-10-31T12:54:03;20.70;;;9.00;;
286;SDS011;127;48.770;9.212;2022-10-31T12:56:42;20.60;;;8.37;;
286;SDS011;127;48.770;9.212;2022-10-31T12:59:20;19.63;;;8.33;;
286;SDS011;127;48.770;9.212;2022-10-31T13:01:54;24.47;;;8.40;;
286;SDS011;127;48.770;9.212;2022-10-31T13:04:33;22.70;;;8.90;;
286;SDS011;127;48.770;9.212;2022-10-31T13:07:10;27.73;;;9.10;;
286;SDS011;127;48.770;9.212;2022-10-31T13:09:43;20.67;;;8.70;;
286;SDS011;127;48.770;9.212;2022-10-31T13:12:19;22.40;;;9.13;;
286;SDS011;127;48.770;9.212;2022-10-31T13:14:50;28.83;;;8.10;;
286;SDS011;127;48.770;9.212;2022-10-31T13:17:24;15.10;;;7.73;;
286;SDS011;127;48.770;9.212;2022-10-31T13:19:59;18.40;;;7.70;;
286;SDS011;127;48.770;9.212;2022-10-31T13:22:48;15.80;;;7.40;;
286;SDS011;127;48.770;9.212;2022-10-31T13:25:21;26.53;;;8.83;;
286;SDS011;127;48.770;9.212;2022-10-31T13:27:53;19.23;;;9.03;;
286;SDS011;127;48.770;9.212;2022-10-31T13:30:26;12.50;;;7.07;;
286;SDS011;127;48.770;9.212;2022-10-31T13:32:59;19.40;;;7.60;;
286;SDS011;127;48.770;9.212;2022-10-31T13:35:35;20.03;;;6.97;;
286;SDS011;127;48.770;9.212;2022-10-31T13:38:14;21.10;;;7.30;;
286;SDS011;127;48.770;9.212;2022-10-31T13:40:50;17.33;;;6.87;;
286;SDS011;127;48.770;9.212;2022-10-31T13:43:25;18.40;;;6.70;;
286;SDS011;127;48.770;9.212;2022-10-31T13:45:58;20.57;;;7.80;;
286;SDS011;127;48.770;9.212;2022-10-31T13:48:34;18.17;;;7.87;;
286;SDS011;127;48.770;9.212;2022-10-31T13:51:08;17.40;;;7.90;;
286;SDS011;127;48.770;9.212;2022-10-31T13:53:42;18.07;;;6.73;;
286;SDS011;127;48.770;9.212;2022-10-31T13:56:20;14.77;;;7.27;;
286;SDS011;127;48.770;9.212;2022-10-31T13:58:58;14.83;;;6.63;;
286;SDS011;127;48.770;9.212;2022-10-31T14:01:30;14.40;;;6.50;;
286;SDS011;127;48.770;9.212;2022-10-31T14:04:02;18.37;;;6.30;;
286;SDS011;127;48.770;9.212;2022-10-31T14:06:36;24.03;;;9.20;;
286;SDS011;127;48.770;9.212;2022-10-31T14:09:23;18.20;;;8.10;;
286;SDS011;127;48.770;9.212;2022-10-31T14:12:01;16.00;;;7.20;;
286;SDS011;127;48.770;9.212;2022-10-31T14:14:34;29.60;;;7.47;;
286;SDS011;127;48.770;9.212;2022-10-31T14:17:15;17.33;;;8.27;;
286;SDS011;127;48.770;9.212;2022-10-31T14:22:52;19.67;;;9.40;;
286;SDS011;127;48.770;9.212;2022-10-31T14:25:31;15.37;;;8.50;;
286;SDS011;127;48.770;9.212;2022-10-31T14:28:01;17.47;;;7.60;;
286;SDS011;127;48.770;9.212;2022-10-31T14:30:50;24.60;;;9.23;;
286;SDS011;127;48.770;9.212;2022-10-31T14:33:20;24.23;;;8.13;;
286;SDS011;127;48.770;9.212;2022-10-31T14:35:54;12.10;;;7.17;;
286;SDS011;127;48.770;9.212;2022-10-31T14:38:47;19.80;;;8.10;;
286;SDS011;127;48.770;9.212;2022-10-31T14:41:40;16.67;;;8.00;;
286;SDS011;127;48.770;9.212;2022-10-31T14:47:16;19.47;;;8.07;;
286;SDS011;127;48.770;9.212;2022-10-31T14:50:00;17.73;;;8.30;;
286;SDS011;127;48.770;9.212;2022-10-31T14:52:41;15.77;;;7.50;;
286;SDS011;127;48.770;9.212;2022-10-31T14:55:16;25.00;;;8.73;;
286;SDS011;127;48.770;9.212;2022-10-31T14:57:49;19.23;;;7.60;;
286;SDS011;127;48.770;9.212;2022-10-31T15:00:22;20.70;;;8.50;;
286;SDS011;127;48.770;9.212;2022-10-31T15:02:56;18.37;;;6.20;;
286;SDS011;127;48.770;9.212;2022-10-31T15:05:32;14.63;;;6.60;;
286;SDS011;127;48.770;9.212;2022-10-31T15:08:03;16.00;;;7.00;;
286;SDS011;127;48.770;9.212;2022-10-31T15:10:33;15.10;;;5.83;;
286;SDS011;127;48.770;9.212;2022-10-31T15:13:14;22.93;;;7.03;;
286;SDS011;127;48.770;9.212;2022-10-31T15:15:46;11.17;;;5.30;;
286;SDS011;127;48.770;9.212;2022-10-31T15:18:16;15.97;;;6.20;;
286;SDS011;127;48.770;9.212;2022-10-31T15:20:47;19.87;;;6.03;;
286;SDS011;127;48.770;9.212;2022-10-31T15:23:16;18.77;;;6.60;;
286;SDS011;127;48.770;9.212;2022-10-31T15:25:49;15.70;;;5.33;;
286;SDS011;127;48.770;9.212;2022-10-31T15:28:24;13.87;;;6.50;;
286;SDS011;127;48.770;9.212;2022-10-31T15:30:56;17.10;;;5.90;;
286;SDS011;127;48.770;9.212;2022-10-31T15:33:27;16.77;;;6.90;;
286;SDS011;127;48.770;9.212;2022-10-31T15:35:57;18.77;;;6.73;;
286;SDS011;127;48.770;9.212;2022-10-31T15:38:28;13.23;;;5.57;;
286;SDS011;127;48.770;9.212;2022-10-31T15:40:58;22.40;;;6.50;;
286;SDS011;127;48.770;9.212;2022-10-31T15:43:34;17.80;;;6.77;;
286;SDS011;127;48.770;9.212;2022-10-31T15:46:06;17.03;;;6.73;;
286;SDS011;127;48.770;9.212;2022-10-31T15:48:36;28.67;;;7.07;;
286;SDS011;127;48.770;9.212;2022-10-31T15:51:05;26.77;;;8.40;;
286;SDS011;127;48.770;9.212;2022-10-31T15:53:35;26.37;;;8.47;;
286;SDS011;127;48.770;9.212;2022-10-31T15:56:10;27.03;;;7.60;;
286;SDS011;127;48.770;9.212;2022-10-31T15:58:44;17.60;;;8.07;;
286;SDS011;127;48.770;9.212;2022-10-31T16:01:19;14.50;;;8.40;;
286;SDS011;127;48.770;9.212;2022-10-31T16:04:00;26.00;;;10.07;;
286;SDS011;127;48.770;9.212;2022-10-31T16:06:30;23.90;;;9.60;;
286;SDS011;127;48.770;9.212;2022-10-31T16:09:00;29.87;;;10.80;;
286;SDS011;127;48.770;9.212;2022-10-31T16:11:34;25.30;;;12.20;;
286;SDS011;127;48.770;9.212;2022-10-31T16:14:13;25.43;;;11.13;;
286;SDS011;127;48.770;9.212;2022-10-31T16:16:44;18.57;;;8.70;;
286;SDS011;127;48.770;9.212;2022-10-31T16:19:19;33.23;;;9.77;;
286;SDS011;127;48.770;9.212;2022-10-31T16:21:51;23.27;;;9.57;;
286;SDS011;127;48.770;9.212;2022-10-31T16:24:23;19.90;;;9.40;;
286;SDS011;127;48.770;9.212;2022-10-31T16:26:57;29.33;;;8.30;;
286;SDS011;127;48.770;9.212;2022-10-31T16:29:37;19.97;;;7.57;;
286;SDS011;127;48.770;9.212;2022-10-31T16:32:26;22.20;;;9.67;;
286;SDS011;127;48.770;9.212;2022-10-31T16:37:53;23.77;;;9.57;;
286;SDS011;127;48.770;9.212;2022-10-31T16:40:22;23.47;;;9.90;;
286;SDS011;127;48.770;9.212;2022-10-31T16:42:51;23.47;;;9.60;;
286;SDS011;127;48.770;9.212;2022-10-31T16:45:23;25.33;;;10.13;;
286;SDS011;127;48.770;9.212;2022-10-31T16:47:53;24.30;;;8.87;;
286;SDS011;127;48.770;9.212;2022-10-31T16:50:29;36.03;;;8.80;;
286;SDS011;127;48.770;9.212;2022-10-31T16:52:57;20.27;;;9.70;;
286;SDS011;127;48.770;9.212;2022-10-31T16:55:26;25.23;;;9.87;;
286;SDS011;127;48.770;9.212;2022-10-31T16:57:55;27.70;;;11.83;;
286;SDS011;127;48.770;9.212;2022-10-31T17:00:27;26.00;;;11.27;;
286;SDS011;127;48.770;9.212;2022-10-31T17:02:56;25.83;;;11.20;;
286;SDS011;127;48.770;9.212;2022-10-31T17:05:25;38.97;;;13.03;;
286;SDS011;127;48.770;9.212;2022-10-31T17:07:54;29.37;;;11.87;;
286;SDS011;127;48.770;9.212;2022-10-31T17:10:23;23.30;;;10.53;;
286;SDS011;127;48.770;9.212;2022-10-31T17:12:53;30.40;;;12.30;;
286;SDS011;127;48.770;9.212;2022-10-31T17:15:25;32.30;;;12.23;;
286;SDS011;127;48.770;9.212;2022-10-31T17:17:58;26.40;;;11.07;;
286;SDS011;127;48.770;9.212;2022-10-31T17:20:28;29.43;;;10.43;;
286;SDS011;127;48.770;9.212;2022-10-31T17:22:58;22.90;;;10.83;;
286;SDS011;127;48.770;9.212;2022-10-31T17:25:27;24.60;;;10.70;;
286;SDS011;127;48.770;9.212;2022-10-31T17:27:58;22.03;;;10.23;;
286;SDS011;127;48.770;9.212;2022-10-31T17:30:29;24.80;;;9.20;;
286;SDS011;127;48.770;9.212;2022-10-31T17:33:00;31.07;;;11.27;;
286;SDS011;127;48.770;9.212;2022-10-31T17:35:29;29.10;;;12.47;;
286;SDS011;127;48.770;9.212;2022-10-31T17:37:58;18.80;;;9.03;;
286;SDS011;127;48.770;9.212;2022-10-31T17:40:26;20.93;;;8.93;;
286;SDS011;127;48.770;9.212;2022-10-31T17:42:55;17.10;;;9.00;;
286;SDS011;127;48.770;9.212;2022-10-31T17:45:25;22.93;;;10.50;;
286;SDS011;127;48.770;9.212;2022-10-31T17:47:56;22.30;;;9.40;;
286;SDS011;127;48.770;9.212;2022-10-31T17:50:25;23.67;;;10.97;;
286;SDS011;127;48.770;9.212;2022-10-31T17:52:54;33.20;;;9.70;;
286;SDS011;127;48.770;9.212;2022-10-31T17:55:26;25.83;;;11.40;;
286;SDS011;127;48.770;9.212;2022-10-31T17:57:55;19.77;;;9.83;;